Terminal Aerodrome Forecast
Issued by NWS Medford, OR

Home | Current Version | Previous Version | Text Only | Print | Product List | Glossary On
Versions: 1 2 3 4 5 6 7 8 9 10 11 12 13 14 15 16 17
391
FTUS46 KMFR 082121 AAC
TAFMFR
TAF AMD
KMFR 082121Z 0821/0918 34009KT P6SM SKC WS015/13035KT
     FM090200 29005KT P6SM SKC WS020/13025KT=

USA.gov is the U.S. government's official web portal to all federal, state and local government web resources and services.